KCDA

Caledonia County Airport

Lyndonville, Vermont, USA
METAR KCDA 231055Z AUTO 11005KT 10SM UP OVC009 M01/M01 A2989 RMK AO2 T10061010
Observed Flight Rules
Jan-23 @ 10:55 UTC (an hour ago) Instrument Flight Rules
Wind Visibility Clouds Conditions
110° at 5 knots 10 miles
  • Overcast at 900' AGL
  • Unknown precipitation
Temperatures Readings
Current -1°C / 30°F
Dewpoint -1°C / 30°F
Humidity 100%
Altimeter 29.89" Hg
Pressure 1012 hPa
Elevation 363
METAR KCDA 231055Z AUTO 11005KT 10SM UP OVC009 M01/M01 A2989 RMK AO2 T10061010
Observed Flight Rules
Jan-23 @ 10:55 UTC
(an hour ago)
IFR
Wind Visibility
110° at 5 knots 10 miles
Clouds
  • Overcast at 900' AGL
Conditions
  • Unknown precipitation
Temperature Dewpoint
-1°C / 30°F -1°C / 30°F
Humidity Altimeter Pressure
100% 29.89" Hg 1012 hPa